Terminal Aerodrome Forecast
Issued by NWS

Home | Current Version | Previous Version | Text Only | Print | Product List | Glossary On
Versions: 1 2 3 4 5 6 7 8 9 10 11 12 13 14 15 16
000
FTAK31 PAFA 272327
TAFAGA
TAF
PAGA 272327Z 2800/2824 32006KT P6SM FEW030 SCT060 BKN080
     FM280300 27006KT P6SM SCT025 BKN035 OVC050
     FM281000 30003KT P6SM SCT050 BKN250
     FM281500 31003KT P6SM SKC=

USA.gov is the U.S. government's official web portal to all federal, state and local government web resources and services.